Time;durP1;ratioP1;P1;durP2;ratioP2;P2;SDS_P1;SDS_P2;PMS_P1;PMS_P2;Temp;Humidity;BMP_temperature;BMP_pressure;BME280_temperature;BME280_humidity;BME280_pressure;Samples;Min_cycle;Max_cycle;Signal;HPM_P1;HPM_P2
2022/12/28 00:01:19;;;;;;;16.87;2.47;;;31.30;99.90;;;;;;5092501;28;20642;-71
2022/12/28 00:03:47;;;;;;;5.40;2.30;;;31.40;97.90;;;;;;5090044;28;20195;-70
2022/12/28 00:06:15;;;;;;;13.77;2.60;;;31.40;99.80;;;;;;5090484;28;20218;-70
2022/12/28 00:08:42;;;;;;;16.13;2.40;;;32.00;99.90;;;;;;5094201;28;20222;-70
2022/12/28 00:11:18;;;;;;;12.93;2.47;;;32.10;92.80;;;;;;5088494;28;20176;-70
2022/12/28 00:13:46;;;;;;;23.13;2.73;;;31.50;93.90;;;;;;5074338;28;20191;-71
2022/12/28 00:16:40;;;;;;;6.05;1.75;;;31.50;93.60;;;;;;5073794;28;20759;-69
2022/12/28 00:19:17;;;;;;;5.90;1.37;;;32.20;95.20;;;;;;5094466;28;20183;-70
2022/12/28 00:21:45;;;;;;;2.77;1.40;;;32.30;95.00;;;;;;5094367;28;20585;-69
2022/12/28 00:24:22;;;;;;;3.92;1.80;;;32.60;91.00;;;;;;5093996;28;20258;-69
2022/12/28 00:26:49;;;;;;;12.68;2.03;;;33.10;88.60;;;;;;5094341;28;20183;-70
2022/12/28 00:29:17;;;;;;;3.72;1.70;;;33.40;85.90;;;;;;5079477;28;20702;-70
2022/12/28 00:31:45;;;;;;;3.80;1.50;;;33.10;69.20;;;;;;5083317;28;20183;-69
2022/12/28 00:34:12;;;;;;;4.03;1.70;;;33.10;67.50;;;;;;5078388;28;20587;-70
2022/12/28 00:36:40;;;;;;;4.90;1.65;;;33.10;61.70;;;;;;5075130;28;20230;-71
2022/12/28 00:39:07;;;;;;;5.93;1.50;;;33.10;68.70;;;;;;5093751;28;20262;-70
2022/12/28 00:41:35;;;;;;;3.22;1.38;;;33.60;75.00;;;;;;5092447;28;20273;-71
2022/12/28 00:44:02;;;;;;;17.27;2.50;;;33.90;64.20;;;;;;5092370;28;20186;-70
2022/12/28 00:46:29;;;;;;;6.20;1.55;;;33.40;67.10;;;;;;5093207;28;20266;-72
2022/12/28 00:48:57;;;;;;;2.58;1.60;;;33.50;63.30;;;;;;5092775;28;20638;-71
2022/12/28 00:51:24;;;;;;;1.40;1.30;;;33.90;67.50;;;;;;5089367;28;20591;-70
2022/12/28 01:00:36;;;;;;;8.82;1.40;;;34.80;53.20;;;;;;5082578;28;20254;-73
2022/12/28 01:03:04;;;;;;;3.60;1.23;;;34.20;49.40;;;;;;5080884;28;20184;-71
2022/12/28 01:05:31;;;;;;;4.40;1.50;;;34.00;43.20;;;;;;5083892;28;20186;-73
2022/12/28 01:07:59;;;;;;;5.68;1.50;;;34.10;47.20;;;;;;5072781;28;20262;-72
2022/12/28 01:10:26;;;;;;;2.15;1.17;;;34.30;48.10;;;;;;5072040;28;20184;-74
2022/12/28 01:12:54;;;;;;;4.00;1.30;;;34.30;49.80;;;;;;5073534;28;20568;-71
2022/12/28 01:15:21;;;;;;;7.82;2.35;;;33.90;45.20;;;;;;5072573;28;20192;-70
2022/12/28 01:17:49;;;;;;;4.85;1.30;;;33.80;47.10;;;;;;5073210;28;20195;-71
2022/12/28 01:20:16;;;;;;;2.25;1.23;;;34.00;44.60;;;;;;5073031;28;20164;-70
2022/12/28 01:22:44;;;;;;;6.22;1.60;;;34.30;40.20;;;;;;5073608;28;20176;-71
2022/12/28 01:28:33;;;;;;;8.88;1.20;;;33.60;40.80;;;;;;5078084;28;20258;-71
2022/12/28 01:31:06;;;;;;;4.43;1.23;;;34.10;42.50;;;;;;5072488;28;20183;-70
2022/12/28 01:33:34;;;;;;;2.33;1.30;;;34.10;41.90;;;;;;5078484;28;20178;-71
2022/12/28 01:36:11;;;;;;;2.15;1.60;;;34.20;43.70;;;;;;5093107;28;20199;-70
2022/12/28 01:38:39;;;;;;;2.42;1.20;;;34.20;45.60;;;;;;5092253;28;20179;-72
2022/12/28 01:41:11;;;;;;;1.42;1.30;;;33.70;44.50;;;;;;5092886;28;20242;-72
2022/12/28 01:43:48;;;;;;;3.80;1.13;;;34.40;49.50;;;;;;5086288;28;20219;-71
2022/12/28 01:46:37;;;;;;;1.67;1.20;;;35.10;48.20;;;;;;5070944;28;20261;-70
2022/12/28 01:49:20;;;;;;;2.40;1.30;;;35.30;44.60;;;;;;5072177;28;20215;-73
2022/12/28 01:52:01;;;;;;;2.42;1.30;;;35.40;41.10;;;;;;5072077;28;20286;-69
2022/12/28 01:54:31;;;;;;;12.15;1.90;;;35.10;38.60;;;;;;5085220;28;20186;-70
2022/12/28 01:56:59;;;;;;;1.73;1.30;;;35.30;40.90;;;;;;5092298;28;20183;-70
2022/12/28 01:59:31;;;;;;;3.00;1.23;;;35.00;40.30;;;;;;5072220;28;20179;-71
2022/12/28 02:01:58;;;;;;;2.45;1.13;;;34.80;40.90;;;;;;5072275;28;20187;-71
2022/12/28 02:04:27;;;;;;;5.93;1.50;;;35.10;43.00;;;;;;5072232;28;20187;-71
2022/12/28 02:06:55;;;;;;;2.25;1.45;;;35.20;39.60;;;;;;5071569;28;20693;-69
2022/12/28 02:16:07;;;;;;;1.98;1.10;;;35.40;34.50;;;;;;5091862;28;20186;-69
2022/12/28 02:18:34;;;;;;;2.35;1.00;;;35.20;33.70;;;;;;5092106;28;20550;-71
2022/12/28 02:21:11;;;;;;;1.80;0.77;;;35.30;35.20;;;;;;5089507;28;20171;-70
2022/12/28 02:24:05;;;;;;;3.15;1.52;;;35.20;32.40;;;;;;5071860;28;20179;-70
2022/12/28 02:26:35;;;;;;;5.43;1.42;;;35.30;30.40;;;;;;5071979;28;20205;-70
2022/12/28 02:29:36;;;;;;;1.30;1.20;;;35.40;32.80;;;;;;5087057;28;20219;-70
2022/12/28 02:32:30;;;;;;;2.47;1.55;;;35.60;30.10;;;;;;5090948;28;20240;-70
2022/12/28 02:35:27;;;;;;;2.13;1.20;;;35.60;32.60;;;;;;5090425;28;20195;-69
2022/12/28 02:37:58;;;;;;;0.93;0.73;;;35.90;37.10;;;;;;5089991;28;20184;-72
2022/12/28 02:40:49;;;;;;;3.13;1.33;;;35.70;33.40;;;;;;5072339;28;20254;-72
2022/12/28 02:43:17;;;;;;;2.42;1.65;;;36.00;42.80;;;;;;5071990;28;20694;-71
2022/12/28 02:51:51;;;;;;;7.65;1.58;;;35.90;63.10;;;;;;5091673;28;20216;-72
2022/12/28 02:57:33;;;;;;;3.03;1.30;;;35.20;49.60;;;;;;5071714;28;20198;-74
2022/12/28 03:00:15;;;;;;;2.33;1.50;;;35.50;51.40;;;;;;5072348;28;20270;-73
2022/12/28 03:02:56;;;;;;;5.18;1.40;;;35.50;58.30;;;;;;5071683;28;20220;-75
2022/12/28 03:08:57;;;;;;;4.60;1.50;;;35.90;66.40;;;;;;5021805;28;20220;-71
2022/12/28 03:11:53;;;;;;;3.30;1.20;;;35.50;59.60;;;;;;5067335;28;20250;-72
2022/12/28 03:14:28;;;;;;;6.30;1.38;;;35.40;62.70;;;;;;5075836;28;20616;-74
2022/12/28 03:31:07;;;;;;;4.60;1.40;;;36.20;89.90;;;;;;5076889;28;20253;-72
2022/12/28 03:33:47;;;;;;;5.32;1.13;;;36.30;92.40;;;;;;5075513;28;20245;-75
2022/12/28 03:36:26;;;;;;;7.10;1.60;;;36.30;86.60;;;;;;5074686;28;20171;-75
2022/12/28 03:39:11;;;;;;;9.27;1.48;;;36.00;88.80;;;;;;5078970;28;20179;-73
2022/12/28 03:44:52;;;;;;;4.07;1.20;;;36.30;87.50;;;;;;5075224;28;20186;-71
2022/12/28 03:47:23;;;;;;;3.05;1.60;;;36.20;84.20;;;;;;5073610;28;20501;-71
2022/12/28 03:49:51;;;;;;;7.03;1.70;;;36.00;81.00;;;;;;5088663;28;20218;-75
2022/12/28 03:52:18;;;;;;;2.50;1.13;;;36.00;82.20;;;;;;5093457;28;20312;-75
2022/12/28 03:54:46;;;;;;;3.42;1.23;;;35.60;78.90;;;;;;5094369;28;20183;-75
2022/12/28 03:57:15;;;;;;;11.18;1.85;;;35.60;84.30;;;;;;5080749;28;20179;-76
2022/12/28 04:03:05;;;;;;;5.70;1.25;;;35.50;88.70;;;;;;5074195;28;20349;-71
2022/12/28 04:05:32;;;;;;;5.25;1.38;;;35.20;86.60;;;;;;5074221;28;20658;-72
2022/12/28 04:08:00;;;;;;;4.70;1.17;;;35.20;89.50;;;;;;5074619;28;20302;-72
2022/12/28 04:10:27;;;;;;;4.82;1.15;;;35.20;91.20;;;;;;5073501;28;20603;-73
2022/12/28 04:12:56;;;;;;;5.15;1.40;;;35.20;88.20;;;;;;5073908;28;20222;-71
2022/12/28 04:15:23;;;;;;;4.13;1.33;;;35.00;92.20;;;;;;5074545;28;20203;-71
2022/12/28 04:17:50;;;;;;;5.13;1.70;;;35.30;91.70;;;;;;5074431;28;20164;-72
2022/12/28 04:20:18;;;;;;;5.68;1.27;;;35.80;92.90;;;;;;5087959;28;20187;-71
2022/12/28 04:22:45;;;;;;;6.07;1.10;;;35.70;88.90;;;;;;5085470;28;20594;-71
2022/12/28 04:25:13;;;;;;;7.22;1.42;;;35.40;90.10;;;;;;5082225;28;20183;-76
2022/12/28 04:27:40;;;;;;;4.05;1.15;;;35.40;91.90;;;;;;5094134;28;20172;-73
2022/12/28 04:30:08;;;;;;;5.00;1.00;;;35.20;91.70;;;;;;5081513;28;20703;-70
2022/12/28 04:32:35;;;;;;;7.00;1.30;;;35.10;92.50;;;;;;5090814;28;20220;-70
2022/12/28 04:35:03;;;;;;;5.80;1.50;;;35.30;91.70;;;;;;5093876;28;20266;-71
2022/12/28 04:37:30;;;;;;;3.17;0.98;;;35.50;92.10;;;;;;5094129;28;20497;-71
2022/12/28 04:39:58;;;;;;;9.00;1.40;;;35.50;89.20;;;;;;5082847;28;20225;-72
2022/12/28 04:42:26;;;;;;;4.32;1.08;;;35.60;89.70;;;;;;5073402;28;20179;-70
2022/12/28 04:44:54;;;;;;;5.07;1.40;;;35.80;90.00;;;;;;5075441;28;20183;-70
2022/12/28 04:47:21;;;;;;;4.93;1.52;;;35.40;81.60;;;;;;5093526;28;20206;-71
2022/12/28 04:49:49;;;;;;;10.90;1.10;;;35.10;81.00;;;;;;5093265;28;20217;-71
2022/12/28 04:52:16;;;;;;;1.75;0.82;;;35.10;85.10;;;;;;5093991;28;20593;-70
2022/12/28 04:54:44;;;;;;;3.35;1.25;;;34.80;78.80;;;;;;5093114;28;20214;-70
2022/12/28 04:57:11;;;;;;;3.97;1.15;;;35.10;79.80;;;;;;5083740;28;20183;-70
2022/12/28 04:59:39;;;;;;;6.95;1.60;;;35.10;76.10;;;;;;5072193;28;20184;-72
2022/12/28 05:02:07;;;;;;;3.72;1.20;;;34.70;80.50;;;;;;5073521;28;20164;-71
2022/12/28 05:04:34;;;;;;;4.93;1.23;;;34.90;79.40;;;;;;5073262;28;20579;-69
2022/12/28 05:07:02;;;;;;;3.40;1.25;;;34.90;78.30;;;;;;5086842;28;20223;-69
2022/12/28 05:09:29;;;;;;;2.65;1.27;;;34.90;78.90;;;;;;5085827;28;20207;-71
2022/12/28 05:11:57;;;;;;;3.92;1.08;;;34.90;75.50;;;;;;5074394;28;20172;-69
2022/12/28 05:14:24;;;;;;;7.25;1.23;;;34.70;78.20;;;;;;5088931;28;20198;-69
2022/12/28 05:16:52;;;;;;;3.90;1.20;;;34.70;78.40;;;;;;5092236;28;20266;-69
2022/12/28 05:19:19;;;;;;;2.50;1.02;;;34.70;84.40;;;;;;5094300;28;20171;-69
2022/12/28 05:21:47;;;;;;;5.20;1.25;;;35.00;82.50;;;;;;5094691;28;20207;-71
2022/12/28 05:24:14;;;;;;;3.60;1.60;;;35.00;85.70;;;;;;5094366;28;20265;-69
2022/12/28 05:26:41;;;;;;;3.40;0.95;;;34.90;84.00;;;;;;5084990;28;20192;-70
2022/12/28 05:29:09;;;;;;;3.70;1.23;;;34.70;82.10;;;;;;5086910;28;20293;-70
2022/12/28 05:31:36;;;;;;;3.63;1.10;;;34.60;83.80;;;;;;5094638;28;20175;-68
2022/12/28 05:34:04;;;;;;;6.70;1.33;;;34.40;84.00;;;;;;5087767;28;20263;-70
2022/12/28 05:36:32;;;;;;;4.82;1.20;;;34.30;87.40;;;;;;5082739;28;20179;-69
2022/12/28 05:39:00;;;;;;;4.10;0.93;;;34.30;88.60;;;;;;5072422;28;20202;-70
2022/12/28 05:41:28;;;;;;;3.40;1.20;;;34.30;86.70;;;;;;5074011;28;20169;-69
2022/12/28 05:43:58;;;;;;;6.05;1.20;;;34.30;88.40;;;;;;5073502;28;20559;-71
2022/12/28 05:46:29;;;;;;;5.05;1.38;;;34.80;88.00;;;;;;5073643;28;20171;-69
2022/12/28 05:48:56;;;;;;;6.03;1.15;;;34.60;82.00;;;;;;5071849;28;20311;-69
2022/12/28 05:51:26;;;;;;;5.13;1.42;;;34.60;85.70;;;;;;5073625;28;20184;-69
2022/12/28 05:53:54;;;;;;;4.57;1.17;;;34.40;84.70;;;;;;5072480;28;20250;-70
2022/12/28 05:56:27;;;;;;;6.63;1.25;;;34.50;85.90;;;;;;5073564;28;20164;-69
2022/12/28 05:59:01;;;;;;;8.68;1.10;;;34.30;86.80;;;;;;5071978;28;20196;-70
2022/12/28 06:01:32;;;;;;;10.27;1.45;;;34.20;87.70;;;;;;5072190;28;20176;-70
2022/12/28 06:04:04;;;;;;;5.50;1.40;;;33.90;87.30;;;;;;5073382;28;20176;-71
2022/12/28 06:06:33;;;;;;;2.78;1.08;;;33.70;86.40;;;;;;5073356;28;20208;-71
2022/12/28 06:09:01;;;;;;;6.13;1.42;;;33.80;86.60;;;;;;5073352;28;20204;-69
2022/12/28 06:11:30;;;;;;;5.55;1.35;;;33.70;90.10;;;;;;5071812;28;20181;-69
2022/12/28 06:13:59;;;;;;;5.68;1.05;;;33.70;90.70;;;;;;5073231;28;20179;-68
2022/12/28 06:16:29;;;;;;;5.38;1.40;;;33.50;88.50;;;;;;5073306;28;20268;-68
2022/12/28 06:18:58;;;;;;;8.25;1.10;;;33.70;91.10;;;;;;5073336;28;20183;-69
2022/12/28 06:21:29;;;;;;;3.70;1.17;;;33.60;90.60;;;;;;5073134;28;20164;-70
2022/12/28 06:23:59;;;;;;;4.15;1.05;;;33.70;93.60;;;;;;5073038;28;20176;-69
2022/12/28 06:26:28;;;;;;;6.95;1.60;;;33.40;93.00;;;;;;5073112;28;20183;-68
2022/12/28 06:28:56;;;;;;;4.43;1.55;;;32.90;92.00;;;;;;5073115;28;20227;-71
2022/12/28 06:31:26;;;;;;;10.50;1.75;;;32.60;93.70;;;;;;5073279;28;20179;-69
2022/12/28 06:33:56;;;;;;;4.95;1.20;;;32.60;95.80;;;;;;5073251;28;20684;-69
2022/12/28 06:36:29;;;;;;;7.32;1.45;;;32.50;96.10;;;;;;5072937;28;20206;-69
2022/12/28 06:38:58;;;;;;;6.22;1.50;;;32.40;96.80;;;;;;5073264;28;20175;-69
2022/12/28 06:41:27;;;;;;;5.53;1.17;;;32.30;98.30;;;;;;5071667;28;20191;-68
2022/12/28 06:43:55;;;;;;;5.63;1.13;;;32.40;99.90;;;;;;5073089;28;20175;-69
2022/12/28 06:46:25;;;;;;;7.50;1.30;;;32.60;99.90;;;;;;5082168;28;20235;-69
2022/12/28 06:48:53;;;;;;;7.65;1.70;;;32.40;99.90;;;;;;5072864;28;20220;-69
2022/12/28 06:51:27;;;;;;;7.18;1.38;;;32.30;99.90;;;;;;5072953;28;20637;-69
2022/12/28 06:53:55;;;;;;;6.45;1.60;;;32.10;99.90;;;;;;5073323;28;20197;-71
2022/12/28 06:56:25;;;;;;;5.15;1.50;;;31.90;99.90;;;;;;5073114;28;20592;-69
2022/12/28 06:58:53;;;;;;;7.95;1.90;;;32.00;99.90;;;;;;5073074;28;20221;-71
2022/12/28 07:01:27;;;;;;;11.40;1.52;;;32.10;99.90;;;;;;5076279;28;20180;-69
2022/12/28 07:03:57;;;;;;;4.30;1.52;;;32.20;99.90;;;;;;5077208;28;20171;-69
2022/12/28 07:06:27;;;;;;;7.50;1.42;;;31.90;99.90;;;;;;5076788;28;20237;-70
2022/12/28 07:09:03;;;;;;;4.47;1.52;;;31.70;99.90;;;;;;5076999;28;20676;-71
2022/12/28 07:11:31;;;;;;;6.53;1.33;;;31.50;99.90;;;;;;5077007;28;20180;-69
2022/12/28 07:13:59;;;;;;;7.55;1.85;;;31.40;99.90;;;;;;5076817;28;20318;-69
2022/12/28 07:16:28;;;;;;;9.82;1.98;;;31.30;99.90;;;;;;5076769;28;20223;-69
2022/12/28 07:18:57;;;;;;;7.03;1.73;;;31.20;99.90;;;;;;5076732;28;20198;-69
2022/12/28 07:21:28;;;;;;;8.07;1.88;;;31.00;99.90;;;;;;5076666;28;20551;-69
2022/12/28 07:23:56;;;;;;;9.23;2.07;;;30.90;99.90;;;;;;5076535;28;20195;-70
2022/12/28 07:26:27;;;;;;;7.00;1.77;;;30.90;99.90;;;;;;5076467;28;20176;-70
2022/12/28 07:28:57;;;;;;;11.60;1.90;;;30.80;99.90;;;;;;5076453;28;20257;-68
2022/12/28 07:31:30;;;;;;;8.10;2.07;;;30.60;99.90;;;;;;5076602;28;20180;-71
2022/12/28 07:37:19;;;;;;;7.10;2.03;;;30.50;99.90;;;;;;5075827;28;20243;-71
2022/12/28 07:39:49;;;;;;;8.80;2.40;;;30.50;99.90;;;;;;5076640;28;20172;-69
2022/12/28 07:42:17;;;;;;;8.83;2.10;;;30.40;99.90;;;;;;5076365;28;20236;-70
2022/12/28 07:44:46;;;;;;;10.43;2.33;;;30.30;99.90;;;;;;5076448;28;20183;-68
2022/12/28 07:47:14;;;;;;;7.03;1.70;;;30.30;99.90;;;;;;5076465;28;20175;-70
2022/12/28 07:49:42;;;;;;;9.17;2.10;;;30.30;99.90;;;;;;5076396;28;20238;-69
2022/12/28 07:52:09;;;;;;;8.63;2.03;;;30.00;99.90;;;;;;5076808;28;20164;-69
2022/12/28 07:54:36;;;;;;;10.93;2.77;;;29.90;99.90;;;;;;5076739;28;20168;-69
2022/12/28 07:57:04;;;;;;;9.97;2.50;;;29.90;99.90;;;;;;5076430;28;20532;-70
2022/12/28 07:59:31;;;;;;;8.70;2.10;;;29.80;99.90;;;;;;5074840;28;20641;-69
2022/12/28 08:01:59;;;;;;;9.73;1.97;;;29.90;99.90;;;;;;5076365;28;20257;-70
2022/12/28 08:07:48;;;;;;;7.20;1.73;;;29.50;99.90;;;;;;5074798;28;20322;-69
2022/12/28 08:10:16;;;;;;;8.00;2.03;;;29.40;99.90;;;;;;5075632;28;20236;-70
2022/12/28 08:12:43;;;;;;;8.73;1.97;;;29.40;99.90;;;;;;5075578;28;20579;-70
2022/12/28 08:15:11;;;;;;;14.67;2.63;;;29.40;99.90;;;;;;5074965;28;20183;-68
2022/12/28 08:17:38;;;;;;;9.47;1.93;;;29.30;99.90;;;;;;5076166;28;20707;-70
2022/12/28 08:20:06;;;;;;;9.90;2.20;;;29.30;99.90;;;;;;5075909;28;20540;-69
2022/12/28 08:22:34;;;;;;;7.63;1.77;;;29.20;99.90;;;;;;5075828;28;20272;-68
2022/12/28 08:25:01;;;;;;;9.40;1.77;;;29.20;99.90;;;;;;5075618;28;20172;-69
2022/12/28 08:27:28;;;;;;;12.23;2.13;;;29.10;99.90;;;;;;5075515;28;20314;-69
2022/12/28 08:29:57;;;;;;;11.23;2.87;;;29.00;99.90;;;;;;5075207;28;20212;-71
2022/12/28 08:32:25;;;;;;;12.03;2.43;;;28.90;99.90;;;;;;5075406;28;20175;-72
2022/12/28 08:34:53;;;;;;;10.00;2.17;;;28.80;99.90;;;;;;5075341;28;20176;-68
2022/12/28 08:37:20;;;;;;;9.80;2.30;;;28.60;99.90;;;;;;5075274;28;20164;-70
2022/12/28 08:39:49;;;;;;;10.77;2.70;;;28.40;99.90;;;;;;5075433;28;20204;-70
2022/12/28 08:42:16;;;;;;;12.73;2.30;;;28.20;99.90;;;;;;5075356;28;20531;-69
2022/12/28 08:44:44;;;;;;;11.33;2.53;;;28.10;99.90;;;;;;5075332;28;20262;-71
2022/12/28 08:47:12;;;;;;;15.13;2.20;;;27.90;99.90;;;;;;5075232;28;20204;-69
2022/12/28 08:49:39;;;;;;;7.97;2.10;;;27.70;99.90;;;;;;5074950;28;20742;-69
2022/12/28 08:52:07;;;;;;;8.70;2.30;;;27.50;99.90;;;;;;5075150;28;20176;-69
2022/12/28 08:54:35;;;;;;;7.83;2.13;;;27.40;99.90;;;;;;5075119;28;20168;-69
2022/12/28 08:57:03;;;;;;;12.30;2.40;;;27.30;99.90;;;;;;5075168;28;20219;-70
2022/12/28 08:59:30;;;;;;;11.07;2.53;;;27.20;99.90;;;;;;5074908;28;20183;-69
2022/12/28 09:01:58;;;;;;;11.63;2.50;;;27.10;99.90;;;;;;5074999;28;20182;-71
2022/12/28 09:04:26;;;;;;;10.37;2.10;;;27.00;99.90;;;;;;5074815;28;20250;-71
2022/12/28 09:06:54;;;;;;;9.43;2.27;;;27.00;99.90;;;;;;5074835;28;20179;-69
2022/12/28 09:09:24;;;;;;;10.57;2.87;;;26.80;99.90;;;;;;5074160;28;20609;-69
2022/12/28 09:11:52;;;;;;;10.93;2.70;;;26.80;99.90;;;;;;5074899;28;20169;-72
2022/12/28 09:14:21;;;;;;;15.43;2.37;;;26.70;99.90;;;;;;5073485;28;20220;-70
2022/12/28 09:16:55;;;;;;;11.50;2.03;;;26.60;99.90;;;;;;5073272;28;20190;-71
2022/12/28 09:19:23;;;;;;;10.87;2.10;;;26.50;99.90;;;;;;5074504;28;20709;-70
2022/12/28 09:21:52;;;;;;;14.30;2.60;;;26.50;99.90;;;;;;5074504;28;20164;-72
2022/12/28 09:24:21;;;;;;;8.80;2.40;;;26.50;99.90;;;;;;5073984;28;20172;-72
2022/12/28 09:26:51;;;;;;;8.00;2.40;;;26.40;99.90;;;;;;5074719;28;20352;-70
2022/12/28 09:29:19;;;;;;;8.30;2.30;;;26.40;99.90;;;;;;5074110;28;20260;-70
2022/12/28 09:31:46;;;;;;;10.63;2.17;;;26.40;99.90;;;;;;5074306;28;20535;-69
2022/12/28 09:34:14;;;;;;;8.20;2.10;;;26.30;99.90;;;;;;5074337;28;20187;-69
2022/12/28 09:36:44;;;;;;;17.80;3.57;;;26.30;99.90;;;;;;5074156;28;20176;-69
2022/12/28 09:39:17;;;;;;;10.30;2.53;;;26.20;99.90;;;;;;5074105;28;20192;-72
2022/12/28 09:42:04;;;;;;;11.53;2.50;;;26.20;99.90;;;;;;5072810;28;20515;-70
2022/12/28 09:44:41;;;;;;;9.87;2.30;;;26.10;99.90;;;;;;5074313;28;20182;-69
2022/12/28 09:47:26;;;;;;;9.63;2.60;;;26.10;99.90;;;;;;5074061;28;20225;-70
2022/12/28 09:50:18;;;;;;;11.13;2.40;;;26.00;99.90;;;;;;5073713;28;20207;-70
2022/12/28 09:53:07;;;;;;;14.53;3.00;;;26.00;99.90;;;;;;5073939;28;20222;-70
2022/12/28 09:55:37;;;;;;;8.20;2.27;;;25.90;99.90;;;;;;5074092;28;20255;-69
2022/12/28 09:58:13;;;;;;;12.00;2.73;;;25.90;99.90;;;;;;5074279;28;20225;-70
2022/12/28 10:01:11;;;;;;;13.47;2.87;;;25.90;99.90;;;;;;5073793;28;20207;-70
2022/12/28 10:03:42;;;;;;;16.17;3.27;;;25.80;99.90;;;;;;5073142;28;20214;-69
2022/12/28 10:06:13;;;;;;;14.67;3.10;;;25.70;99.90;;;;;;5072645;28;20601;-69
2022/12/28 10:08:50;;;;;;;9.77;2.57;;;25.70;99.90;;;;;;5073111;28;20288;-70
2022/12/28 10:11:27;;;;;;;14.23;3.20;;;25.70;99.90;;;;;;5073382;28;20208;-70
2022/12/28 10:13:58;;;;;;;11.33;2.63;;;25.70;99.90;;;;;;5073491;28;20184;-69
2022/12/28 10:16:31;;;;;;;10.30;2.70;;;25.70;99.90;;;;;;5073698;28;20226;-70
2022/12/28 10:18:59;;;;;;;15.00;3.10;;;25.60;99.90;;;;;;5072520;28;20211;-69
2022/12/28 10:21:30;;;;;;;16.77;3.10;;;25.60;99.90;;;;;;5073364;28;20255;-69
2022/12/28 10:23:59;;;;;;;12.37;3.10;;;25.50;99.90;;;;;;5073652;28;20180;-69
2022/12/28 10:26:27;;;;;;;10.33;2.70;;;25.40;99.90;;;;;;5073367;28;20211;-70
2022/12/28 10:28:59;;;;;;;12.00;3.10;;;25.40;99.90;;;;;;5073068;28;20211;-70
2022/12/28 10:31:36;;;;;;;12.90;2.63;;;25.40;99.90;;;;;;5073483;28;20537;-70
2022/12/28 10:34:21;;;;;;;13.90;2.90;;;25.40;99.90;;;;;;5073100;28;20633;-69
2022/12/28 10:36:50;;;;;;;10.93;2.60;;;25.50;99.90;;;;;;5073027;28;20192;-70
2022/12/28 10:39:27;;;;;;;9.47;2.23;;;25.40;99.90;;;;;;5071796;28;20550;-71
2022/12/28 10:41:57;;;;;;;16.80;3.37;;;25.40;99.90;;;;;;5073109;28;20155;-69
2022/12/28 10:44:37;;;;;;;10.13;3.47;;;25.30;99.90;;;;;;5073081;28;20245;-70
2022/12/28 10:47:34;;;;;;;12.40;3.47;;;25.30;99.90;;;;;;5073203;28;20241;-71
2022/12/28 10:50:05;;;;;;;16.63;4.97;;;25.20;99.90;;;;;;5066555;28;20630;-69
2022/12/28 10:52:33;;;;;;;11.77;4.23;;;25.20;99.90;;;;;;5073298;28;20522;-69
2022/12/28 10:55:01;;;;;;;11.63;3.67;;;25.20;99.90;;;;;;5073038;28;20181;-68
2022/12/28 10:57:31;;;;;;;12.33;3.27;;;25.10;99.90;;;;;;5072991;28;20175;-70
2022/12/28 11:00:20;;;;;;;15.40;3.40;;;25.10;99.90;;;;;;5072852;28;20519;-68
2022/12/28 11:02:48;;;;;;;14.77;3.30;;;25.00;99.90;;;;;;5071779;28;20532;-71
2022/12/28 11:05:25;;;;;;;15.10;3.33;;;25.00;99.90;;;;;;5072935;28;20172;-69
2022/12/28 11:08:15;;;;;;;13.73;3.40;;;24.90;99.90;;;;;;5072821;28;20479;-70
2022/12/28 11:10:43;;;;;;;12.70;4.10;;;24.90;99.90;;;;;;5072943;28;20187;-71
2022/12/28 11:13:19;;;;;;;12.40;3.77;;;24.80;99.90;;;;;;5073119;28;20171;-70
2022/12/28 11:15:47;;;;;;;8.47;2.33;;;24.80;99.90;;;;;;5073219;28;20183;-70
2022/12/28 11:18:17;;;;;;;10.80;2.53;;;24.70;99.90;;;;;;5072758;28;20167;-70
2022/12/28 11:20:51;;;;;;;11.43;3.20;;;24.70;99.90;;;;;;5072792;28;20181;-70
2022/12/28 11:23:22;;;;;;;14.73;3.00;;;24.60;99.90;;;;;;5073008;28;20197;-70
2022/12/28 11:25:50;;;;;;;12.83;3.43;;;24.60;99.90;;;;;;5072700;28;20180;-70
2022/12/28 11:28:22;;;;;;;10.77;3.40;;;24.50;99.90;;;;;;5072550;28;20171;-69
2022/12/28 11:30:51;;;;;;;9.90;2.80;;;24.40;99.90;;;;;;5071402;28;20180;-70
2022/12/28 11:33:43;;;;;;;13.07;3.87;;;24.40;99.90;;;;;;5072600;28;20189;-71
2022/12/28 11:36:20;;;;;;;11.17;3.03;;;24.30;99.90;;;;;;5072688;28;20221;-69
2022/12/28 11:38:52;;;;;;;13.73;2.87;;;24.20;99.90;;;;;;5072652;28;20180;-69
2022/12/28 11:41:29;;;;;;;15.00;3.50;;;24.10;99.90;;;;;;5072635;28;20648;-69
2022/12/28 11:44:03;;;;;;;15.00;4.13;;;24.10;99.90;;;;;;5072713;28;20187;-70
2022/12/28 11:46:31;;;;;;;14.93;3.23;;;24.10;99.90;;;;;;5074245;28;20191;-71
2022/12/28 11:48:59;;;;;;;16.80;3.97;;;24.00;99.90;;;;;;5076407;28;20281;-70
2022/12/28 11:51:36;;;;;;;12.23;3.60;;;24.00;99.90;;;;;;5076156;28;20190;-71
2022/12/28 11:54:24;;;;;;;14.27;3.47;;;23.90;99.90;;;;;;5076312;28;20182;-69
2022/12/28 11:56:52;;;;;;;12.47;2.87;;;24.00;99.90;;;;;;5076166;28;20217;-70
2022/12/28 11:59:26;;;;;;;11.73;3.13;;;24.00;99.90;;;;;;5076867;28;20668;-69
2022/12/28 12:01:55;;;;;;;11.53;2.93;;;23.90;99.90;;;;;;5078805;28;20233;-71
2022/12/28 12:07:47;;;;;;;8.13;2.77;;;23.90;99.90;;;;;;5075391;28;20198;-71
2022/12/28 12:10:32;;;;;;;12.27;2.70;;;23.80;99.90;;;;;;5075659;28;20235;-71
2022/12/28 12:13:03;;;;;;;17.07;3.13;;;23.80;99.90;;;;;;5087187;28;20187;-72
2022/12/28 12:15:42;;;;;;;14.47;3.00;;;23.80;99.90;;;;;;5094301;28;20190;-71
2022/12/28 12:18:23;;;;;;;8.00;2.73;;;23.80;99.90;;;;;;5096173;28;20341;-71
2022/12/28 12:20:58;;;;;;;10.83;2.47;;;23.70;99.90;;;;;;5091254;28;20726;-71
2022/12/28 12:23:43;;;;;;;11.00;2.67;;;23.70;99.90;;;;;;5074410;28;20236;-71
2022/12/28 12:26:39;;;;;;;9.97;2.87;;;23.70;99.90;;;;;;5075822;28;20249;-71
2022/12/28 12:29:25;;;;;;;11.63;3.17;;;23.60;99.90;;;;;;5072562;28;20241;-72
2022/12/28 12:32:30;;;;;;;9.43;2.43;;;23.60;99.90;;;;;;5082615;28;20171;-72
2022/12/28 12:35:07;;;;;;;13.53;3.40;;;23.60;99.90;;;;;;5073258;28;20278;-71
2022/12/28 12:37:38;;;;;;;15.70;3.60;;;23.60;99.90;;;;;;5074127;28;20180;-70
2022/12/28 12:40:29;;;;;;;10.17;3.30;;;23.50;99.90;;;;;;5075368;28;20179;-70
2022/12/28 12:43:12;;;;;;;15.67;3.17;;;23.60;99.90;;;;;;5075405;28;20179;-70
2022/12/28 12:45:57;;;;;;;14.57;3.50;;;23.50;99.90;;;;;;5075633;28;20680;-70
2022/12/28 12:48:43;;;;;;;11.23;3.40;;;23.50;99.90;;;;;;5074806;28;20171;-71
2022/12/28 12:51:35;;;;;;;12.87;3.17;;;23.40;99.90;;;;;;5081146;28;20193;-71
2022/12/28 12:54:44;;;;;;;12.57;3.73;;;23.30;99.90;;;;;;5093668;28;20597;-70
2022/12/28 12:57:32;;;;;;;10.47;2.77;;;23.20;99.90;;;;;;5044821;28;20207;-70
2022/12/28 13:00:17;;;;;;;16.50;3.60;;;23.10;99.90;;;;;;5074937;28;20168;-71
2022/12/28 13:03:12;;;;;;;12.30;3.10;;;23.00;99.90;;;;;;5093774;28;20187;-71
2022/12/28 13:05:44;;;;;;;9.43;3.03;;;23.00;99.90;;;;;;5094483;28;20168;-71
2022/12/28 13:08:28;;;;;;;14.43;3.60;;;23.00;99.90;;;;;;5084608;28;20274;-73
2022/12/28 13:10:56;;;;;;;19.30;4.03;;;22.90;99.90;;;;;;5092903;28;20197;-70
2022/12/28 13:13:46;;;;;;;13.70;2.93;;;22.90;99.90;;;;;;5084683;28;20541;-72
2022/12/28 13:16:25;;;;;;;9.10;2.77;;;22.80;99.90;;;;;;5084166;28;20255;-70
2022/12/28 13:18:58;;;;;;;12.10;3.20;;;22.80;99.90;;;;;;5074850;28;20229;-72
2022/12/28 13:21:29;;;;;;;10.23;2.50;;;22.70;99.90;;;;;;5075630;28;20523;-71
2022/12/28 13:23:57;;;;;;;12.33;3.37;;;22.70;99.90;;;;;;5074580;28;20286;-70
2022/12/28 13:26:29;;;;;;;10.47;2.73;;;22.60;99.90;;;;;;5074678;28;20176;-72
2022/12/28 13:29:03;;;;;;;11.10;3.10;;;22.60;99.90;;;;;;5080389;28;20219;-73
2022/12/28 13:31:37;;;;;;;12.00;3.10;;;22.60;99.90;;;;;;5086300;28;20214;-70
2022/12/28 13:34:26;;;;;;;11.63;3.03;;;22.60;99.90;;;;;;5074529;28;20536;-73
2022/12/28 13:36:59;;;;;;;8.30;2.93;;;22.60;99.90;;;;;;5074020;28;20179;-72
2022/12/28 13:39:33;;;;;;;10.93;3.07;;;22.50;99.90;;;;;;5074046;28;20665;-70
2022/12/28 13:42:34;;;;;;;16.80;3.63;;;22.40;99.90;;;;;;5086435;28;20262;-70
2022/12/28 13:45:04;;;;;;;11.50;3.80;;;22.40;99.90;;;;;;5094551;28;20210;-71
2022/12/28 13:47:39;;;;;;;18.87;3.47;;;22.40;99.90;;;;;;5074239;28;20180;-72
2022/12/28 13:50:09;;;;;;;10.00;3.00;;;22.50;99.90;;;;;;5086014;28;20271;-72
2022/12/28 13:52:49;;;;;;;10.10;3.43;;;22.50;99.90;;;;;;5076715;28;20229;-71
2022/12/28 13:55:38;;;;;;;13.30;3.43;;;22.40;99.90;;;;;;5074231;28;20633;-70
2022/12/28 13:58:14;;;;;;;15.07;3.73;;;22.30;99.90;;;;;;5073483;28;20180;-73
2022/12/28 14:00:47;;;;;;;18.37;4.07;;;22.30;99.90;;;;;;5074081;28;20176;-72
2022/12/28 14:03:17;;;;;;;14.80;3.87;;;22.20;99.90;;;;;;5094067;28;20168;-70
2022/12/28 14:05:48;;;;;;;9.03;3.80;;;22.20;99.90;;;;;;5094113;28;20576;-71
2022/12/28 14:08:17;;;;;;;11.90;3.30;;;22.20;99.90;;;;;;5092178;28;20543;-71
2022/12/28 14:10:47;;;;;;;13.90;3.07;;;22.20;99.90;;;;;;5092393;28;20719;-72